Time;durP1;ratioP1;P1;durP2;ratioP2;P2;SDS_P1;SDS_P2;PMS_P1;PMS_P2;Temp;Humidity;BMP_temperature;BMP_pressure;BME280_temperature;BME280_humidity;BME280_pressure;Samples;Min_cycle;Max_cycle;Signal;HPM_P1;HPM_P2
2024/01/17 03:58:54;;;;;;;38.28;21.13;;;-3.10;99.90;;;;;;4950800;29;20530;-94
2024/01/17 04:01:37;;;;;;;32.25;22.80;;;-3.20;99.90;;;;;;4930794;29;20123;-95
2024/01/17 04:04:08;;;;;;;37.83;23.02;;;-3.20;99.90;;;;;;4953263;29;20115;-94
2024/01/17 04:06:38;;;;;;;42.45;24.55;;;-3.20;99.90;;;;;;4947831;29;20023;-95
2024/01/17 04:09:06;;;;;;;35.30;22.85;;;-3.20;99.90;;;;;;4947720;29;20031;-93
2024/01/17 04:11:36;;;;;;;33.60;20.88;;;-3.20;99.90;;;;;;4948345;29;20031;-93
2024/01/17 04:14:06;;;;;;;42.67;24.17;;;-3.20;99.90;;;;;;4947353;29;20031;-93
2024/01/17 04:16:34;;;;;;;39.08;22.70;;;-3.20;99.90;;;;;;4947825;29;20126;-95
2024/01/17 04:19:14;;;;;;;36.75;22.58;;;-3.20;99.90;;;;;;4946645;29;20047;-94
2024/01/17 04:21:59;;;;;;;33.53;20.33;;;-3.20;99.90;;;;;;4954486;29;20065;-95
2024/01/17 04:24:26;;;;;;;35.22;21.10;;;-3.10;99.90;;;;;;4956769;29;20024;-94
2024/01/17 04:26:57;;;;;;;38.80;24.30;;;-3.10;99.90;;;;;;4947049;29;20020;-93
2024/01/17 04:29:51;;;;;;;33.10;22.63;;;-3.10;99.90;;;;;;4946786;29;20024;-93
2024/01/17 04:32:17;;;;;;;41.00;20.50;;;-3.10;99.90;;;;;;4965517;28;20031;-92
2024/01/17 04:34:59;;;;;;;37.05;24.30;;;-3.20;99.90;;;;;;4960477;29;20016;-94
2024/01/17 04:45:48;;;;;;;30.90;19.25;;;-3.10;99.90;;;;;;4975313;28;20059;-93
2024/01/17 04:48:31;;;;;;;32.55;19.83;;;-3.10;99.90;;;;;;5276798;23;20051;-93
2024/01/17 04:58:20;;;;;;;31.00;18.08;;;-3.20;99.90;;;;;;4966563;28;20080;-94
2024/01/17 05:00:53;;;;;;;35.13;21.77;;;-3.20;99.90;;;;;;4943242;29;20036;-94
2024/01/17 05:03:19;;;;;;;32.45;21.75;;;-3.10;99.90;;;;;;4944117;28;20070;-94
2024/01/17 05:06:01;;;;;;;40.75;25.83;;;-3.10;99.90;;;;;;4939612;29;20443;-93
2024/01/17 05:08:29;;;;;;;51.42;29.88;;;-3.10;99.90;;;;;;4931731;29;20040;-92
2024/01/17 05:11:19;;;;;;;40.13;24.90;;;-3.20;99.90;;;;;;5187843;23;20039;-93
2024/01/17 05:13:55;;;;;;;34.25;22.23;;;-3.10;99.90;;;;;;4995763;28;20031;-93
2024/01/17 05:16:26;;;;;;;34.22;20.13;;;-3.10;99.90;;;;;;4992635;28;20102;-93
2024/01/17 05:18:56;;;;;;;30.02;19.63;;;-3.10;99.90;;;;;;4997052;28;20014;-93
2024/01/17 05:21:37;;;;;;;30.75;19.92;;;-3.00;99.90;;;;;;4995076;28;20026;-92
2024/01/17 05:24:09;;;;;;;34.53;21.40;;;-3.00;99.90;;;;;;4991575;28;20031;-93
2024/01/17 05:26:49;;;;;;;31.80;22.92;;;-3.00;99.90;;;;;;4959931;28;20027;-92
2024/01/17 05:36:52;;;;;;;27.30;18.98;;;-3.00;99.90;;;;;;4559416;23;20050;-92
2024/01/17 05:39:24;;;;;;;30.58;19.77;;;-3.00;99.90;;;;;;4978415;28;20035;-92
2024/01/17 05:41:56;;;;;;;28.40;16.23;;;-3.00;99.90;;;;;;4985149;28;20035;-92
2024/01/17 05:44:33;;;;;;;32.97;17.73;;;-2.90;99.90;;;;;;5001658;28;20050;-93
2024/01/17 05:49:38;;;;;;;26.75;17.83;;;-2.90;99.90;;;;;;5804058;23;20051;-93
2024/01/17 05:52:34;;;;;;;34.70;19.48;;;-2.90;99.90;;;;;;4946422;29;20035;-93
2024/01/17 06:06:46;;;;;;;27.95;18.13;;;-2.90;99.90;;;;;;5027553;23;20054;-94
2024/01/17 06:09:33;;;;;;;26.65;17.65;;;-2.90;99.90;;;;;;5004193;28;20035;-92
2024/01/17 06:12:20;;;;;;;27.98;17.60;;;-2.90;99.90;;;;;;4993182;28;20802;-93
2024/01/17 06:15:01;;;;;;;28.17;18.02;;;-2.80;99.90;;;;;;4996638;28;20031;-93
2024/01/17 06:20:32;;;;;;;28.95;16.23;;;-2.80;99.90;;;;;;4993069;28;20144;-94
2024/01/17 06:25:36;;;;;;;34.65;19.63;;;-2.70;99.90;;;;;;5025154;23;20055;-92
2024/01/17 06:28:03;;;;;;;25.95;15.27;;;-2.70;99.90;;;;;;5014096;28;20031;-92
2024/01/17 06:30:41;;;;;;;28.77;18.10;;;-2.70;99.90;;;;;;5015776;28;20023;-92
2024/01/17 06:33:08;;;;;;;28.98;19.23;;;-2.70;99.90;;;;;;4981761;28;20038;-91
2024/01/17 06:35:59;;;;;;;27.95;18.17;;;-2.70;99.90;;;;;;5001087;28;20046;-91
2024/01/17 06:51:07;;;;;;;29.08;18.65;;;-2.50;99.90;;;;;;5316088;23;20038;-93
2024/01/17 06:53:36;;;;;;;30.75;15.73;;;-2.60;99.90;;;;;;5411925;23;20047;-94
2024/01/17 06:56:06;;;;;;;26.42;20.38;;;-2.60;99.90;;;;;;5011352;28;20054;-92
2024/01/17 06:58:34;;;;;;;29.63;18.98;;;-2.60;99.90;;;;;;5091706;23;20220;-96
2024/01/17 07:01:35;;;;;;;34.65;20.63;;;-2.60;99.90;;;;;;4962396;28;20035;-96
2024/01/17 07:04:20;;;;;;;36.38;20.23;;;-2.60;99.90;;;;;;4954699;28;20023;-96
2024/01/17 07:07:01;;;;;;;28.05;20.15;;;-2.60;99.90;;;;;;5189007;23;20043;-96
2024/01/17 07:09:54;;;;;;;;;;;;;;;;;;;;;
2024/01/17 07:17:40;;;;;;;34.53;21.48;;;-2.50;99.90;;;;;;5031421;23;20077;-91
2024/01/17 07:20:15;;;;;;;41.95;24.50;;;-2.50;99.90;;;;;;5024377;28;20038;-92
2024/01/17 07:22:41;;;;;;;;;;;-2.40;99.90;;;;;;5011844;28;20042;-90
2024/01/17 07:25:17;;;;;;;50.45;27.77;;;-2.40;99.90;;;;;;4995384;28;19894;-92
2024/01/17 07:27:45;;;;;;;41.33;26.30;;;-2.30;99.90;;;;;;5028101;28;20027;-92
2024/01/17 07:30:12;;;;;;;;;;;-2.40;99.90;;;;;;5010475;28;20070;-94
2024/01/17 07:36:11;;;;;;;33.83;22.20;;;-2.40;99.90;;;;;;5347805;23;20050;-92
2024/01/17 07:38:38;;;;;;;30.80;21.38;;;-2.40;99.90;;;;;;5071033;23;20055;-92
2024/01/17 07:43:44;;;;;;;38.70;23.60;;;-2.30;99.90;;;;;;5579587;23;20050;-96
2024/01/17 07:46:33;;;;;;;43.08;23.23;;;-2.30;99.90;;;;;;4993568;28;20039;-94
2024/01/17 07:49:15;;;;;;;41.70;22.92;;;-2.30;99.90;;;;;;4999640;28;20039;-94
2024/01/17 07:52:25;;;;;;;51.72;29.77;;;-2.30;99.90;;;;;;4985692;28;20027;-95
2024/01/17 07:58:00;;;;;;;43.97;23.88;;;-2.20;99.90;;;;;;4983883;28;20034;-93
2024/01/17 08:00:53;;;;;;;44.03;25.15;;;-2.20;99.90;;;;;;4975949;28;20130;-96
2024/01/17 08:03:22;;;;;;;45.50;26.48;;;-2.20;99.90;;;;;;4974194;28;20030;-95
2024/01/17 08:05:48;;;;;;;49.05;24.85;;;-2.20;99.90;;;;;;4973163;28;20034;-94
2024/01/17 08:08:14;;;;;;;50.63;28.27;;;-2.10;99.90;;;;;;4974591;28;20027;-94
2024/01/17 08:10:49;;;;;;;54.13;28.23;;;-2.10;99.90;;;;;;4966502;28;20046;-94
2024/01/17 08:13:22;;;;;;;47.28;27.65;;;-2.10;99.90;;;;;;4967399;28;20057;-94
2024/01/17 08:18:25;;;;;;;52.97;28.58;;;-1.90;99.90;;;;;;4946493;28;20051;-92
2024/01/17 08:21:49;;;;;;;53.10;30.67;;;-1.90;99.90;;;;;;4957716;28;20040;-94
2024/01/17 08:28:03;;;;;;;51.05;28.13;;;-1.90;99.90;;;;;;5156511;23;20043;-94
2024/01/17 08:30:32;;;;;;;53.10;31.02;;;-1.90;99.90;;;;;;4984562;28;20054;-94
2024/01/17 08:33:12;;;;;;;50.75;28.17;;;-1.90;99.90;;;;;;4990629;28;20054;-95
2024/01/17 08:35:40;;;;;;;53.88;27.92;;;-1.90;99.90;;;;;;4992030;28;20035;-93
2024/01/17 08:38:18;;;;;;;46.60;28.35;;;-1.80;99.90;;;;;;5003083;28;20030;-95
2024/01/17 08:41:03;;;;;;;52.88;28.30;;;-1.90;99.90;;;;;;5004333;28;20034;-92
2024/01/17 08:53:09;;;;;;;49.70;30.42;;;-1.80;99.90;;;;;;4898408;29;20052;-91
2024/01/17 08:55:35;;;;;;;64.07;31.83;;;-1.80;99.90;;;;;;4902773;29;20036;-92
2024/01/17 08:58:11;;;;;;;58.60;30.58;;;-1.70;99.90;;;;;;4912909;29;20028;-91
2024/01/17 09:00:58;;;;;;;59.25;31.25;;;-1.80;99.90;;;;;;4893658;29;20048;-91
2024/01/17 09:03:34;;;;;;;55.00;30.92;;;-1.70;99.90;;;;;;4906626;29;20099;-91
2024/01/17 09:06:12;;;;;;;57.25;30.70;;;-1.70;99.90;;;;;;4914766;29;20016;-92
2024/01/17 09:08:45;;;;;;;52.05;29.20;;;-1.70;99.90;;;;;;4916772;29;20037;-93
2024/01/17 09:11:11;;;;;;;53.90;30.60;;;-1.80;99.90;;;;;;4906544;29;20051;-90
2024/01/17 09:13:38;;;;;;;59.22;35.00;;;-1.70;99.90;;;;;;4897556;29;20091;-91
2024/01/17 09:16:09;;;;;;;59.97;32.40;;;-1.70;99.90;;;;;;4891561;29;20103;-89
2024/01/17 09:18:35;;;;;;;58.08;31.42;;;-1.70;99.90;;;;;;4921167;29;20044;-91
2024/01/17 09:21:04;;;;;;;57.38;33.47;;;-1.70;99.90;;;;;;4918469;29;20070;-91
2024/01/17 09:23:31;;;;;;;53.40;28.15;;;-1.70;99.90;;;;;;4908851;29;20055;-92
2024/01/17 09:26:17;;;;;;;56.42;33.15;;;-1.60;99.90;;;;;;4887787;29;20029;-92
2024/01/17 09:28:46;;;;;;;59.38;33.78;;;-1.60;99.90;;;;;;4888138;29;20035;-90
2024/01/17 09:31:15;;;;;;;61.00;33.85;;;-1.50;99.90;;;;;;4893346;29;20037;-91
2024/01/17 09:33:50;;;;;;;59.08;33.25;;;-1.50;99.90;;;;;;4894710;29;20040;-93
2024/01/17 09:36:16;;;;;;;63.17;37.80;;;-1.40;99.90;;;;;;4899660;29;20330;-92
2024/01/17 09:38:42;;;;;;;57.72;31.48;;;-1.40;99.90;;;;;;4887708;29;20120;-91
2024/01/17 09:41:09;;;;;;;55.42;32.95;;;-1.40;99.90;;;;;;4899263;29;20044;-90
2024/01/17 09:43:37;;;;;;;64.90;28.85;;;-1.30;99.90;;;;;;4889432;29;20455;-91
2024/01/17 09:46:04;;;;;;;53.38;33.67;;;-1.40;99.90;;;;;;4884771;29;20032;-90
2024/01/17 09:48:33;;;;;;;59.10;31.83;;;-1.40;99.90;;;;;;4889180;29;20363;-91
2024/01/17 09:51:02;;;;;;;59.70;30.60;;;-1.30;99.90;;;;;;4908493;29;20060;-92
2024/01/17 09:53:38;;;;;;;54.17;31.25;;;-1.30;99.90;;;;;;4888660;29;20028;-92
2024/01/17 09:56:25;;;;;;;53.15;30.38;;;-1.30;99.90;;;;;;4886850;29;20759;-91
2024/01/17 09:59:29;;;;;;;67.53;32.72;;;-1.30;99.90;;;;;;4900912;29;20020;-92
2024/01/17 10:01:58;;;;;;;44.78;30.65;;;-1.30;99.90;;;;;;4920560;29;20107;-92
2024/01/17 10:04:25;;;;;;;58.35;32.50;;;-1.30;99.90;;;;;;4890032;29;20056;-92
2024/01/17 10:06:52;;;;;;;58.67;33.50;;;-1.20;99.90;;;;;;4894397;29;20040;-94
2024/01/17 10:10:13;;;;;;;60.42;31.85;;;-1.30;99.90;;;;;;4900918;29;20116;-92
2024/01/17 10:12:42;;;;;;;66.32;36.25;;;-1.20;99.90;;;;;;4890121;29;20119;-92
2024/01/17 10:15:14;;;;;;;;;;;-1.20;99.90;;;;;;4897380;29;20032;-91
2024/01/17 10:17:40;;;;;;;63.50;32.72;;;-1.10;99.90;;;;;;4906601;29;19912;-92
2024/01/17 10:20:08;;;;;;;59.50;33.08;;;-1.10;99.90;;;;;;4901468;29;20047;-90
2024/01/17 10:23:03;;;;;;;56.58;33.53;;;-1.10;99.90;;;;;;4901628;29;20104;-90
2024/01/17 10:28:45;;;;;;;59.78;32.75;;;-1.00;99.90;;;;;;4931806;29;20146;-93
2024/01/17 10:31:12;;;;;;;64.88;32.05;;;-1.10;99.90;;;;;;4939058;29;20016;-92
2024/01/17 10:33:42;;;;;;;59.03;33.40;;;-1.00;99.90;;;;;;4944418;28;20095;-91
2024/01/17 10:36:11;;;;;;;92.97;47.67;;;-1.00;99.90;;;;;;4928748;29;20024;-92
2024/01/17 10:38:44;;;;;;;63.33;35.45;;;-1.10;99.90;;;;;;4932479;29;20031;-91
2024/01/17 10:41:10;;;;;;;64.07;34.83;;;-1.10;99.90;;;;;;4930844;29;20035;-93
2024/01/17 10:43:53;;;;;;;64.35;34.67;;;-1.10;99.90;;;;;;4926683;28;20028;-91
2024/01/17 10:46:20;;;;;;;65.68;33.22;;;-1.10;99.90;;;;;;4931364;29;20035;-92
2024/01/17 10:48:46;;;;;;;91.57;44.78;;;-1.10;99.90;;;;;;4940680;28;20062;-91
2024/01/17 10:51:18;;;;;;;99.70;42.17;;;-1.10;99.90;;;;;;4935268;28;20371;-91
2024/01/17 10:53:47;;;;;;;64.95;35.55;;;-1.00;99.90;;;;;;4931908;28;20471;-90
2024/01/17 10:56:16;;;;;;;90.53;45.38;;;-0.90;99.90;;;;;;4929592;28;20039;-93
2024/01/17 10:58:45;;;;;;;65.10;35.97;;;-1.00;99.90;;;;;;4933195;28;20055;-90
2024/01/17 11:01:14;;;;;;;66.05;35.85;;;-1.00;99.90;;;;;;4931658;29;20031;-94
2024/01/17 11:03:46;;;;;;;74.97;39.03;;;-1.00;99.90;;;;;;4928988;29;21170;-90
2024/01/17 11:06:13;;;;;;;68.88;38.92;;;-1.00;99.90;;;;;;4929035;29;20758;-90
2024/01/17 11:08:44;;;;;;;78.30;39.20;;;-1.00;99.90;;;;;;4945620;28;20042;-91
2024/01/17 11:11:11;;;;;;;66.43;37.10;;;-1.00;99.90;;;;;;4936906;28;20039;-91
2024/01/17 11:13:42;;;;;;;66.35;37.10;;;-0.90;99.90;;;;;;4936214;28;20036;-92
2024/01/17 11:16:11;;;;;;;67.10;39.35;;;-0.90;99.90;;;;;;4950869;28;20062;-91
2024/01/17 11:18:49;;;;;;;79.95;43.90;;;-0.90;99.90;;;;;;4953058;28;20023;-91
2024/01/17 11:21:20;;;;;;;62.53;33.95;;;-0.90;99.90;;;;;;4945286;28;20052;-92
2024/01/17 11:23:52;;;;;;;59.97;32.90;;;-0.90;99.90;;;;;;4928158;28;20103;-91
2024/01/17 11:26:48;;;;;;;66.97;36.42;;;-0.90;99.90;;;;;;4931427;29;20042;-92
2024/01/17 11:29:24;;;;;;;62.45;32.97;;;-0.90;99.90;;;;;;4936199;28;20064;-93
2024/01/17 11:32:15;;;;;;;72.00;40.42;;;-0.90;99.90;;;;;;4942456;29;20023;-93
2024/01/17 11:34:50;;;;;;;68.80;36.85;;;-0.70;99.90;;;;;;4946865;28;20037;-92
2024/01/17 11:37:38;;;;;;;71.25;39.63;;;-0.70;99.90;;;;;;4942303;29;20032;-94
2024/01/17 11:40:10;;;;;;;68.13;33.10;;;-0.70;99.90;;;;;;4957128;28;20510;-92
2024/01/17 11:42:43;;;;;;;70.68;37.33;;;-0.70;99.90;;;;;;4963047;28;20039;-92
2024/01/17 11:45:09;;;;;;;74.00;39.70;;;-0.60;99.90;;;;;;4952069;28;20096;-92
2024/01/17 11:47:38;;;;;;;70.95;35.97;;;-0.60;99.90;;;;;;4965042;28;20038;-92
2024/01/17 11:50:05;;;;;;;;;;;-0.50;99.90;;;;;;4953504;28;20034;-92
2024/01/17 11:52:40;;;;;;;68.20;37.47;;;-0.60;99.90;;;;;;4948654;28;19960;-92
2024/01/17 11:55:15;;;;;;;60.88;36.28;;;-0.50;99.90;;;;;;4929066;29;20072;-91
2024/01/17 11:57:43;;;;;;;64.70;34.22;;;-0.60;99.90;;;;;;4926032;29;20027;-91
2024/01/17 12:00:21;;;;;;;59.90;33.05;;;-0.60;99.90;;;;;;4935516;29;20047;-91
2024/01/17 12:03:27;;;;;;;65.10;38.15;;;-0.60;99.90;;;;;;4937440;28;20092;-93
2024/01/17 12:13:08;;;;;;;62.95;35.35;;;-0.60;99.90;;;;;;4940069;28;20050;-92
2024/01/17 12:15:50;;;;;;;;;;;;;;;;;;;;;
2024/01/17 12:21:02;;;;;;;68.18;35.83;;;-0.60;99.90;;;;;;4930813;26;20043;-92
2024/01/17 12:27:05;;;;;;;68.10;38.22;;;-0.40;99.90;;;;;;4943666;28;20102;-92
2024/01/17 12:29:32;;;;;;;69.60;38.90;;;-0.40;99.90;;;;;;4917225;28;20091;-93
2024/01/17 12:31:58;;;;;;;64.35;38.35;;;-0.40;99.90;;;;;;4941275;28;20019;-93
2024/01/17 12:34:59;;;;;;;63.63;36.72;;;-0.30;99.90;;;;;;4933755;28;20023;-92
2024/01/17 12:38:04;;;;;;;65.93;36.38;;;-0.30;99.90;;;;;;4938532;28;20039;-92
2024/01/17 12:40:30;;;;;;;57.15;32.83;;;-0.30;99.90;;;;;;4940321;28;20050;-92
2024/01/17 12:43:29;;;;;;;73.20;39.03;;;-0.30;99.90;;;;;;4939045;28;20431;-92
2024/01/17 12:46:22;;;;;;;71.30;37.80;;;-0.40;99.90;;;;;;4935454;28;20028;-92
2024/01/17 12:49:18;;;;;;;64.55;38.42;;;-0.40;99.90;;;;;;4942279;28;20042;-91
2024/01/17 12:55:02;;;;;;;57.45;31.92;;;-0.40;99.90;;;;;;4859644;29;20239;-93
2024/01/17 12:57:46;;;;;;;64.93;37.65;;;-0.30;99.90;;;;;;4876406;28;21068;-90
2024/01/17 13:00:30;;;;;;;;;;;;;;;;;;;;;
2024/01/17 13:03:19;;;;;;;58.85;32.30;;;-0.50;99.90;;;;;;4946973;28;20153;-92
2024/01/17 13:06:29;;;;;;;58.58;30.67;;;-0.40;99.90;;;;;;4937670;28;20580;-92
2024/01/17 13:09:22;;;;;;;50.90;28.80;;;-0.50;99.90;;;;;;4857506;29;20049;-91
2024/01/17 13:12:05;;;;;;;68.18;39.28;;;-0.50;99.90;;;;;;4858706;29;20040;-92
2024/01/17 13:17:51;;;;;;;52.25;31.23;;;-0.50;99.90;;;;;;4911042;28;20042;-93
2024/01/17 13:20:26;;;;;;;;;;;-0.40;99.90;;;;;;5054977;23;20043;-96
2024/01/17 13:22:55;;;;;;;54.53;30.08;;;-0.40;99.90;;;;;;5184435;23;19920;-94
2024/01/17 13:25:22;;;;;;;55.22;30.70;;;-0.40;99.90;;;;;;4982357;28;20015;-96
2024/01/17 13:27:55;;;;;;;62.40;31.60;;;-0.40;99.90;;;;;;4979687;28;20023;-96
2024/01/17 13:30:22;;;;;;;61.72;34.03;;;-0.30;99.90;;;;;;4962737;28;20054;-95
2024/01/17 13:32:49;;;;;;;58.67;32.65;;;-0.30;99.90;;;;;;4956516;23;20047;-94
2024/01/17 13:35:16;;;;;;;63.33;34.60;;;-0.40;99.90;;;;;;4951647;28;20156;-92
2024/01/17 13:37:43;;;;;;;60.70;33.97;;;-0.30;99.90;;;;;;4949023;28;20051;-93
2024/01/17 13:40:26;;;;;;;62.90;30.63;;;-0.30;99.90;;;;;;4951537;28;20110;-92
2024/01/17 13:42:52;;;;;;;70.30;36.85;;;-0.20;99.90;;;;;;4949441;28;20097;-93
2024/01/17 13:45:19;;;;;;;67.00;36.30;;;-0.20;99.90;;;;;;4942247;28;20067;-93
2024/01/17 13:47:46;;;;;;;50.88;29.98;;;-0.20;99.90;;;;;;4945883;28;20035;-93
2024/01/17 13:50:25;;;;;;;59.45;32.80;;;-0.10;99.90;;;;;;4947619;28;20043;-92
2024/01/17 13:53:17;;;;;;;63.95;31.23;;;-0.10;99.90;;;;;;4947300;28;20020;-93
2024/01/17 13:55:47;;;;;;;56.85;31.60;;;-0.10;99.90;;;;;;4941513;28;20031;-93
2024/01/17 13:58:14;;;;;;;56.67;32.75;;;0.00;99.90;;;;;;4949575;28;20030;-93
2024/01/17 14:00:42;;;;;;;61.35;31.88;;;-0.10;99.90;;;;;;4948806;28;20043;-92
2024/01/17 14:03:08;;;;;;;56.85;36.03;;;0.00;99.90;;;;;;4952679;28;20037;-93
2024/01/17 14:05:34;;;;;;;61.08;34.92;;;0.00;99.90;;;;;;4950733;28;20059;-94
2024/01/17 14:08:00;;;;;;;50.80;32.97;;;0.00;99.90;;;;;;4963966;28;20032;-94
2024/01/17 14:10:26;;;;;;;52.28;29.25;;;0.00;99.90;;;;;;4958436;28;20497;-93
2024/01/17 14:12:52;;;;;;;52.33;28.65;;;0.00;99.90;;;;;;4948802;28;20031;-93
2024/01/17 14:15:19;;;;;;;57.92;30.73;;;0.00;99.90;;;;;;4941897;28;20038;-93
2024/01/17 14:17:53;;;;;;;57.67;34.22;;;0.00;99.90;;;;;;4949859;28;20031;-92
2024/01/17 14:20:20;;;;;;;94.63;54.72;;;0.00;99.90;;;;;;4953049;28;20034;-93
2024/01/17 14:22:51;;;;;;;66.60;41.95;;;0.10;99.90;;;;;;4947796;28;20150;-93
2024/01/17 14:25:23;;;;;;;59.75;33.90;;;0.10;99.90;;;;;;4942967;28;20031;-93
2024/01/17 14:27:49;;;;;;;56.47;33.97;;;0.10;99.90;;;;;;4951534;28;20054;-94
2024/01/17 14:30:16;;;;;;;58.63;35.38;;;0.10;99.90;;;;;;4951432;28;20034;-93
2024/01/17 14:32:42;;;;;;;61.70;37.50;;;0.00;99.90;;;;;;4945839;28;20043;-92
2024/01/17 14:35:14;;;;;;;52.72;33.40;;;0.10;99.90;;;;;;4946448;28;20038;-93
2024/01/17 14:37:40;;;;;;;62.40;39.25;;;0.10;99.90;;;;;;4950846;28;20024;-93
2024/01/17 14:40:12;;;;;;;59.88;36.33;;;0.00;99.90;;;;;;4950642;28;20306;-93
2024/01/17 14:42:39;;;;;;;56.45;35.10;;;0.10;99.90;;;;;;4947284;28;20035;-93
2024/01/17 14:45:12;;;;;;;57.63;33.83;;;0.10;99.90;;;;;;4929506;28;20561;-94
2024/01/17 14:47:42;;;;;;;60.65;31.55;;;0.20;99.90;;;;;;4948993;28;20023;-94
2024/01/17 14:50:09;;;;;;;55.22;31.73;;;0.10;99.90;;;;;;4949306;28;20050;-93
2024/01/17 14:52:35;;;;;;;52.22;35.60;;;0.10;99.90;;;;;;4950354;28;20039;-94
2024/01/17 14:55:01;;;;;;;61.05;34.22;;;0.10;99.90;;;;;;4947761;28;20036;-94
2024/01/17 14:57:30;;;;;;;64.00;34.25;;;0.10;99.90;;;;;;4954080;28;20048;-92
2024/01/17 14:59:55;;;;;;;55.97;29.13;;;0.10;99.90;;;;;;4933063;28;20630;-93
2024/01/17 15:02:24;;;;;;;55.80;33.13;;;0.10;99.90;;;;;;4954501;28;20090;-93
2024/01/17 15:04:50;;;;;;;58.38;33.17;;;0.00;99.90;;;;;;4944404;28;20058;-94
2024/01/17 15:07:16;;;;;;;57.60;31.60;;;0.00;99.90;;;;;;4949301;28;20437;-92
2024/01/17 15:09:42;;;;;;;60.05;33.90;;;0.00;99.90;;;;;;4951174;28;20108;-92
2024/01/17 15:12:08;;;;;;;59.17;37.50;;;0.00;99.90;;;;;;4948589;28;20031;-91
2024/01/17 15:14:33;;;;;;;66.15;36.97;;;0.00;99.90;;;;;;4937307;28;20041;-92
2024/01/17 15:16:59;;;;;;;58.53;34.22;;;0.00;99.90;;;;;;4950902;28;20035;-91
2024/01/17 15:19:25;;;;;;;68.05;38.08;;;-0.10;99.90;;;;;;4950893;28;20099;-91
2024/01/17 15:21:51;;;;;;;59.65;33.60;;;-0.10;99.90;;;;;;4967563;28;20047;-91
2024/01/17 15:24:17;;;;;;;66.57;35.70;;;-0.10;99.90;;;;;;4962277;28;20023;-91
2024/01/17 15:26:44;;;;;;;74.18;40.88;;;-0.10;99.90;;;;;;4961550;28;20031;-91
2024/01/17 15:29:11;;;;;;;74.93;41.05;;;-0.10;99.90;;;;;;4945898;28;20063;-92
2024/01/17 15:31:38;;;;;;;70.15;35.13;;;-0.10;99.90;;;;;;4950259;28;20033;-91
2024/01/17 15:34:04;;;;;;;72.35;36.83;;;0.00;99.90;;;;;;4949601;28;20058;-92
2024/01/17 15:36:30;;;;;;;67.95;35.95;;;-0.10;99.90;;;;;;4948129;28;20074;-92
2024/01/17 15:38:59;;;;;;;67.60;36.53;;;0.00;99.90;;;;;;4930982;28;20097;-91
2024/01/17 15:41:27;;;;;;;64.68;35.15;;;0.00;99.90;;;;;;4953690;28;20032;-93
2024/01/17 15:43:53;;;;;;;;;;;0.00;99.90;;;;;;4928392;28;20062;-91
2024/01/17 15:46:18;;;;;;;67.18;37.53;;;0.00;99.90;;;;;;4948103;28;19914;-92
2024/01/17 15:48:44;;;;;;;71.22;36.15;;;0.00;99.90;;;;;;4933981;28;20038;-93
2024/01/17 15:51:29;;;;;;;59.83;34.30;;;0.00;99.90;;;;;;4939875;28;20716;-91
2024/01/17 15:53:58;;;;;;;68.85;36.90;;;0.00;99.90;;;;;;4934351;28;20023;-93
2024/01/17 15:56:26;;;;;;;62.10;37.38;;;0.00;99.90;;;;;;4948267;28;20026;-92
2024/01/17 15:58:52;;;;;;;72.72;37.65;;;0.10;99.90;;;;;;4953726;28;20485;-92
2024/01/17 16:01:26;;;;;;;73.47;36.88;;;0.10;99.90;;;;;;4958920;28;20082;-93
2024/01/17 16:03:52;;;;;;;77.75;39.75;;;0.00;99.90;;;;;;4943523;28;20031;-95
2024/01/17 16:06:27;;;;;;;76.63;44.72;;;0.00;99.90;;;;;;4948637;28;20065;-93
2024/01/17 16:09:02;;;;;;;89.63;46.03;;;0.00;99.90;;;;;;4935970;28;20035;-93
2024/01/17 16:11:39;;;;;;;80.00;43.85;;;-0.10;99.90;;;;;;4940882;28;20031;-93
2024/01/17 16:14:05;;;;;;;72.65;37.78;;;-0.10;99.90;;;;;;4928884;28;20054;-93
2024/01/17 16:16:32;;;;;;;76.68;41.42;;;-0.10;99.90;;;;;;4952511;28;20041;-93
2024/01/17 16:19:01;;;;;;;76.63;39.47;;;-0.10;99.90;;;;;;4936087;28;20093;-92
2024/01/17 16:21:27;;;;;;;70.00;42.47;;;-0.10;99.90;;;;;;4952673;28;20055;-91
2024/01/17 16:23:53;;;;;;;70.70;37.88;;;-0.10;99.90;;;;;;4941329;28;20062;-91
2024/01/17 16:26:19;;;;;;;80.63;41.20;;;-0.10;99.90;;;;;;4946577;28;20035;-92
2024/01/17 16:28:46;;;;;;;71.88;37.90;;;-0.10;99.90;;;;;;4951660;28;20019;-91
2024/01/17 16:31:11;;;;;;;75.47;38.83;;;-0.10;99.90;;;;;;4962722;28;20019;-92
2024/01/17 16:33:37;;;;;;;65.13;36.05;;;-0.10;99.90;;;;;;4956210;28;20043;-94
2024/01/17 16:36:04;;;;;;;72.25;40.85;;;-0.10;99.90;;;;;;4944959;28;20023;-91
2024/01/17 16:38:30;;;;;;;71.20;35.55;;;0.00;99.90;;;;;;4947144;28;20031;-93
2024/01/17 16:40:56;;;;;;;80.53;45.00;;;0.00;99.90;;;;;;4944817;28;20126;-93
2024/01/17 16:43:25;;;;;;;67.85;36.97;;;0.00;99.90;;;;;;4946449;28;20031;-91
2024/01/17 16:45:52;;;;;;;60.40;35.75;;;0.10;99.90;;;;;;4924041;28;20019;-91
2024/01/17 16:48:18;;;;;;;63.78;35.67;;;0.10;99.90;;;;;;4943257;28;20031;-91
2024/01/17 16:50:51;;;;;;;65.68;35.50;;;0.10;99.90;;;;;;4949332;28;21306;-90
2024/01/17 16:53:17;;;;;;;63.10;34.80;;;0.20;99.90;;;;;;4939779;28;20057;-92
2024/01/17 16:55:43;;;;;;;63.35;35.47;;;0.20;99.90;;;;;;4940500;28;20815;-92
2024/01/17 16:58:09;;;;;;;68.93;34.22;;;0.20;99.90;;;;;;4927187;28;20066;-90
2024/01/17 17:00:38;;;;;;;70.20;37.20;;;0.20;99.90;;;;;;4947649;28;20047;-92
2024/01/17 17:03:04;;;;;;;64.65;36.13;;;0.30;99.90;;;;;;4947709;28;20023;-92
2024/01/17 17:05:30;;;;;;;69.57;40.03;;;0.60;99.90;;;;;;4936064;28;20035;-94
2024/01/17 17:07:57;;;;;;;75.75;39.28;;;0.80;99.90;;;;;;4928569;28;20027;-91
2024/01/17 17:10:31;;;;;;;63.13;34.08;;;1.00;99.90;;;;;;4942854;28;20414;-91
2024/01/17 17:12:57;;;;;;;;;;;1.20;99.90;;;;;;4945466;28;20027;-91
2024/01/17 17:15:23;;;;;;;66.40;36.30;;;1.30;99.90;;;;;;4937173;28;20010;-91
2024/01/17 17:17:48;;;;;;;70.72;36.80;;;1.40;99.90;;;;;;4946628;28;20036;-91
2024/01/17 17:20:24;;;;;;;55.97;26.83;;;1.40;99.90;;;;;;4946025;28;20496;-90
2024/01/17 17:23:13;;;;;;;52.60;28.63;;;1.40;99.90;;;;;;4929636;28;20063;-92
2024/01/17 17:25:41;;;;;;;53.60;28.58;;;1.90;99.90;;;;;;4949755;28;20046;-93
2024/01/17 17:28:08;;;;;;;54.70;30.42;;;2.30;99.90;;;;;;4957321;28;20035;-93
2024/01/17 17:30:35;;;;;;;51.63;30.30;;;2.60;99.90;;;;;;4945294;28;20087;-93
2024/01/17 17:36:32;;;;;;;48.67;26.40;;;3.10;99.90;;;;;;4920314;28;20070;-92
2024/01/17 17:38:58;;;;;;;43.63;27.20;;;3.50;99.90;;;;;;4942874;28;20019;-93
2024/01/17 17:41:24;;;;;;;43.17;23.60;;;3.80;99.90;;;;;;4941438;28;20137;-92
2024/01/17 17:43:49;;;;;;;44.30;24.40;;;4.00;99.90;;;;;;4941271;28;20101;-93
2024/01/17 17:46:15;;;;;;;37.25;22.05;;;4.00;99.90;;;;;;4946021;28;20038;-91
2024/01/17 17:48:41;;;;;;;30.70;16.90;;;4.20;99.90;;;;;;4944738;28;20028;-93
2024/01/17 17:51:07;;;;;;;25.90;13.13;;;4.50;99.90;;;;;;4948637;28;20084;-94
2024/01/17 17:53:48;;;;;;;22.23;13.68;;;5.30;99.90;;;;;;4947065;28;20114;-92
2024/01/17 17:56:14;;;;;;;26.48;11.98;;;5.90;99.90;;;;;;4931311;29;20055;-93
2024/01/17 17:58:39;;;;;;;19.08;10.35;;;6.60;99.90;;;;;;4937932;29;20066;-91
2024/01/17 18:01:05;;;;;;;15.15;9.52;;;7.10;99.90;;;;;;4959711;28;20038;-90
2024/01/17 18:03:31;;;;;;;18.55;10.80;;;7.50;99.90;;;;;;4957738;28;20033;-91
2024/01/17 18:05:57;;;;;;;15.65;9.02;;;7.60;99.90;;;;;;4956784;28;20023;-92
2024/01/17 18:08:23;;;;;;;13.98;9.75;;;7.90;99.90;;;;;;4955456;28;20046;-91
2024/01/17 18:10:52;;;;;;;13.35;9.02;;;8.10;99.90;;;;;;4954363;28;20039;-92
2024/01/17 18:13:18;;;;;;;15.48;7.50;;;8.30;99.90;;;;;;4968893;28;20051;-93
2024/01/17 18:15:43;;;;;;;13.65;8.35;;;8.50;99.90;;;;;;4941854;28;20035;-92
2024/01/17 18:18:09;;;;;;;9.95;7.32;;;8.50;99.90;;;;;;4954767;28;20035;-91
2024/01/17 18:20:35;;;;;;;10.70;8.50;;;8.80;99.90;;;;;;4953406;28;20057;-91
2024/01/17 18:23:01;;;;;;;9.85;6.68;;;8.90;99.90;;;;;;4955057;28;20024;-91
2024/01/17 18:25:26;;;;;;;6.50;5.90;;;9.30;99.90;;;;;;4954990;28;20026;-92
2024/01/17 18:27:52;;;;;;;7.80;5.25;;;9.50;99.90;;;;;;4954153;28;20039;-91
2024/01/17 18:30:18;;;;;;;4.82;4.15;;;9.70;99.90;;;;;;4963025;28;20123;-92
2024/01/17 18:32:50;;;;;;;5.00;4.50;;;9.80;99.90;;;;;;4963363;28;20035;-92
2024/01/17 18:35:16;;;;;;;5.78;4.90;;;9.90;99.90;;;;;;4961448;28;20030;-92
2024/01/17 18:37:47;;;;;;;5.97;5.47;;;10.00;99.90;;;;;;4960044;28;20032;-94
2024/01/17 18:40:14;;;;;;;6.18;4.05;;;10.10;99.90;;;;;;4933569;29;20035;-92
2024/01/17 18:42:42;;;;;;;5.63;5.00;;;10.30;99.90;;;;;;4957777;28;20047;-92
2024/01/17 18:45:09;;;;;;;7.72;4.93;;;10.10;99.90;;;;;;4965283;28;20035;-94
2024/01/17 18:47:40;;;;;;;6.88;4.78;;;10.10;99.90;;;;;;4957647;28;20519;-92
2024/01/17 18:50:10;;;;;;;4.32;3.63;;;10.30;99.90;;;;;;4956146;28;20054;-93
2024/01/17 18:52:36;;;;;;;4.53;3.88;;;10.50;99.90;;;;;;4965355;28;20048;-94